Time;durP1;ratioP1;P1;durP2;ratioP2;P2;SDS_P1;SDS_P2;PMS_P1;PMS_P2;Temp;Humidity;BMP_temperature;BMP_pressure;BME280_temperature;BME280_humidity;BME280_pressure;Samples;Min_cycle;Max_cycle;Signal;HPM_P1;HPM_P2
2022/07/25 00:00:26;;;;;;;;;;;;;;;-142.75;100.00;75696.38;5053372;28;20340;-69
2022/07/25 00:02:51;;;;;;;;;;;;;;;-142.75;100.00;75686.53;5053451;28;20394;-69
2022/07/25 00:05:16;;;;;;;;;;;;;;;-142.75;100.00;75686.53;5053394;28;19939;-69
2022/07/25 00:07:41;;;;;;;;;;;;;;;-142.75;100.00;75680.63;5053261;28;19920;-68
2022/07/25 00:10:07;;;;;;;;;;;;;;;-142.75;100.00;75690.47;5053061;28;20297;-69
2022/07/25 00:12:32;;;;;;;;;;;;;;;-142.75;100.00;75692.44;5053509;28;20402;-69
2022/07/25 00:14:57;;;;;;;;;;;;;;;-142.75;100.00;75690.47;5053299;28;20528;-69
2022/07/25 00:17:22;;;;;;;;;;;;;;;-142.75;100.00;75686.53;5053159;28;19920;-69
2022/07/25 00:19:48;;;;;;;;;;;;;;;-142.75;100.00;75680.63;5052797;28;20015;-69
2022/07/25 00:22:13;;;;;;;;;;;;;;;-142.75;100.00;75668.84;5053089;28;19951;-69
2022/07/25 00:24:38;;;;;;;;;;;;;;;-142.75;100.00;75664.91;5051696;28;20337;-69
2022/07/25 00:27:03;;;;;;;;;;;;;;;-142.75;100.00;75660.97;5053031;28;19913;-69
2022/07/25 00:29:29;;;;;;;;;;;;;;;-142.75;100.00;75651.13;5052551;28;19916;-70
2022/07/25 00:31:54;;;;;;;;;;;;;;;-142.75;100.00;75653.09;5052908;28;20003;-69
2022/07/25 00:34:19;;;;;;;;;;;;;;;-142.75;100.00;75643.25;5052943;28;20087;-69
2022/07/25 00:36:44;;;;;;;;;;;;;;;-142.75;100.00;75639.31;5052827;28;19912;-69
2022/07/25 00:39:09;;;;;;;;;;;;;;;-142.75;100.00;75639.31;5052322;28;19959;-69
2022/07/25 00:41:35;;;;;;;;;;;;;;;-142.75;100.00;75641.28;5052757;28;19991;-69
2022/07/25 00:44:00;;;;;;;;;;;;;;;-142.75;100.00;75651.13;5052778;28;19917;-69
2022/07/25 00:46:25;;;;;;;;;;;;;;;-142.75;100.00;75641.28;5051946;28;19917;-69
2022/07/25 00:48:50;;;;;;;;;;;;;;;-142.75;100.00;75639.31;5052378;28;19966;-69
2022/07/25 00:51:16;;;;;;;;;;;;;;;-142.75;100.00;75637.34;5052565;28;19913;-69
2022/07/25 00:53:42;;;;;;;;;;;;;;;-142.75;100.00;75627.50;5052589;28;19966;-70
2022/07/25 00:56:07;;;;;;;;;;;;;;;-142.75;100.00;75625.53;5051260;28;19913;-70
2022/07/25 00:58:33;;;;;;;;;;;;;;;-142.75;100.00;75621.59;5052206;28;19919;-69
2022/07/25 01:00:58;;;;;;;;;;;;;;;-142.75;100.00;75623.56;5052443;28;19920;-70
2022/07/25 01:03:23;;;;;;;;;;;;;;;-142.75;100.00;75617.66;5051200;28;19912;-69
2022/07/25 01:05:49;;;;;;;;;;;;;;;-142.75;100.00;75609.78;5052400;28;19919;-70
2022/07/25 01:08:16;;;;;;;;;;;;;;;-142.75;100.00;75601.91;5051956;28;19917;-69
2022/07/25 01:10:41;;;;;;;;;;;;;;;-142.75;100.00;75590.13;5052274;28;19913;-69
2022/07/25 01:13:06;;;;;;;;;;;;;;;-142.75;100.00;75576.34;5052275;28;19966;-70
2022/07/25 01:15:32;;;;;;;;;;;;;;;-142.75;100.00;75574.38;5052258;28;19928;-70
2022/07/25 01:17:57;;;;;;;;;;;;;;;-142.75;100.00;75568.47;5050665;28;19916;-69
2022/07/25 01:20:24;;;;;;;;;;;;;;;-142.75;100.00;75566.50;5052062;28;19917;-69
2022/07/25 01:22:49;;;;;;;;;;;;;;;-142.75;100.00;75570.44;5052222;28;19913;-69
2022/07/25 01:25:15;;;;;;;;;;;;;;;-142.75;100.00;75570.44;5052417;28;19912;-69
2022/07/25 01:27:41;;;;;;;;;;;;;;;-142.75;100.00;75574.38;5052183;28;20003;-69
2022/07/25 01:30:07;;;;;;;;;;;;;;;-142.75;100.00;75574.38;5051831;28;19916;-69
2022/07/25 01:32:32;;;;;;;;;;;;;;;-142.75;100.00;75566.50;5052211;28;19979;-69
2022/07/25 01:34:57;;;;;;;;;;;;;;;-142.75;100.00;75570.44;5052241;28;20349;-69
2022/07/25 01:37:23;;;;;;;;;;;;;;;-142.75;100.00;75560.59;5050865;28;19913;-69
2022/07/25 01:39:48;;;;;;;;;;;;;;;-142.75;100.00;75554.69;5051613;28;19916;-70
2022/07/25 01:42:13;;;;;;;;;;;;;;;-142.75;100.00;75552.72;5052088;28;20382;-69
2022/07/25 01:44:38;;;;;;;;;;;;;;;-142.75;100.00;75564.53;5050695;28;19934;-69
2022/07/25 01:47:04;;;;;;;;;;;;;;;-142.75;100.00;75564.53;5051957;28;20378;-69
2022/07/25 01:49:29;;;;;;;;;;;;;;;-142.75;100.00;75568.47;5051543;28;19913;-69
2022/07/25 01:51:54;;;;;;;;;;;;;;;-142.75;100.00;75574.38;5051851;28;19920;-69
2022/07/25 01:54:19;;;;;;;;;;;;;;;-142.75;100.00;75576.34;5050581;28;19917;-69
2022/07/25 01:56:44;;;;;;;;;;;;;;;-142.75;100.00;75594.06;5051852;28;20444;-69
2022/07/25 01:59:10;;;;;;;;;;;;;;;-142.75;100.00;75590.13;5054241;28;20374;-69
2022/07/25 02:01:35;;;;;;;;;;;;;;;-142.75;100.00;75596.00;5055810;28;19919;-69
2022/07/25 02:04:01;;;;;;;;;;;;;;;-142.75;100.00;75596.00;5055794;28;19965;-69
2022/07/25 02:06:26;;;;;;;;;;;;;;;-142.75;100.00;75597.97;5055720;28;19963;-69
2022/07/25 02:08:51;;;;;;;;;;;;;;;-142.75;100.00;75597.97;5055224;28;20370;-69
2022/07/25 02:11:16;;;;;;;;;;;;;;;-142.75;100.00;75590.13;5055536;28;19919;-69
2022/07/25 02:13:41;;;;;;;;;;;;;;;-142.75;100.00;75592.09;5055434;28;19920;-69
2022/07/25 02:16:07;;;;;;;;;;;;;;;-142.75;100.00;75582.25;5055466;28;19936;-69
2022/07/25 02:18:32;;;;;;;;;;;;;;;-142.75;100.00;75574.38;5055038;28;20552;-69
2022/07/25 02:20:57;;;;;;;;;;;;;;;-142.75;100.00;75588.16;5055335;28;19935;-69
2022/07/25 02:23:22;;;;;;;;;;;;;;;-142.75;100.00;75603.88;5055307;28;19913;-69
2022/07/25 02:25:47;;;;;;;;;;;;;;;-142.75;100.00;75594.06;5055449;28;19939;-69
2022/07/25 02:28:13;;;;;;;;;;;;;;;-142.75;100.00;75611.75;5054851;28;19919;-70
2022/07/25 02:30:38;;;;;;;;;;;;;;;-142.75;100.00;75597.97;5095351;22;20284;-71
2022/07/25 02:33:03;;;;;;;;;;;;;;;-142.75;100.00;75597.97;5093707;28;19916;-72
2022/07/25 02:35:28;;;;;;;;;;;;;;;-142.75;100.00;75590.13;5095207;28;19985;-71
2022/07/25 02:37:53;;;;;;;;;;;;;;;-142.75;100.00;75605.84;5095187;28;19912;-70
2022/07/25 02:40:19;;;;;;;;;;;;;;;-142.75;100.00;75605.84;5094048;28;19926;-71
2022/07/25 02:42:44;;;;;;;;;;;;;;;-142.75;100.00;75607.81;5095537;28;19916;-72
2022/07/25 02:45:10;;;;;;;;;;;;;;;-142.75;100.00;75605.84;5094155;28;19912;-71
2022/07/25 02:47:35;;;;;;;;;;;;;;;-142.75;100.00;75601.91;5094063;28;20105;-71
2022/07/25 02:50:00;;;;;;;;;;;;;;;-142.75;100.00;75599.94;5095238;28;19938;-72
2022/07/25 02:52:25;;;;;;;;;;;;;;;-142.75;100.00;75592.09;5095228;28;19913;-71
2022/07/25 02:54:50;;;;;;;;;;;;;;;-142.75;100.00;75576.34;5095341;28;19920;-71
2022/07/25 02:57:16;;;;;;;;;;;;;;;-142.75;100.00;75584.22;5095205;28;19957;-72
2022/07/25 02:59:41;;;;;;;;;;;;;;;-142.75;100.00;75582.25;5094801;28;19959;-72
2022/07/25 03:02:06;;;;;;;;;;;;;;;-142.75;100.00;75584.22;5095212;28;19912;-71
2022/07/25 03:04:32;;;;;;;;;;;;;;;-142.75;100.00;75582.25;5095164;28;19952;-71
2022/07/25 03:06:57;;;;;;;;;;;;;;;-142.75;100.00;75586.19;5095013;28;20305;-72
2022/07/25 03:09:22;;;;;;;;;;;;;;;-142.75;100.00;75597.97;5093748;28;20007;-71
2022/07/25 03:11:49;;;;;;;;;;;;;;;-142.75;100.00;75597.97;5092923;28;20400;-72
2022/07/25 03:14:15;;;;;;;;;;;;;;;-142.75;100.00;75590.13;5094828;28;20007;-71
2022/07/25 03:16:40;;;;;;;;;;;;;;;-142.75;100.00;75594.06;5094995;28;20002;-72
2022/07/25 03:19:09;;;;;;;;;;;;;;;-142.75;100.00;75592.09;5094429;28;19930;-71
2022/07/25 03:21:34;;;;;;;;;;;;;;;-142.75;100.00;75574.38;5094552;28;19916;-72
2022/07/25 03:23:59;;;;;;;;;;;;;;;-142.75;100.00;75582.25;5094650;28;19940;-72
2022/07/25 03:26:24;;;;;;;;;;;;;;;-142.75;100.00;75582.25;5094647;28;20003;-71
2022/07/25 03:28:49;;;;;;;;;;;;;;;-142.75;100.00;75574.38;5094230;28;19916;-72
2022/07/25 03:31:15;;;;;;;;;;;;;;;-142.75;100.00;75574.38;5094333;28;19916;-71
2022/07/25 03:33:40;;;;;;;;;;;;;;;-142.75;100.00;75586.19;5094652;28;19912;-72
2022/07/25 03:36:05;;;;;;;;;;;;;;;-142.75;100.00;75594.06;5094533;28;20038;-71
2022/07/25 03:38:31;;;;;;;;;;;;;;;-142.75;100.00;75596.00;5094077;28;20342;-72
2022/07/25 03:40:56;;;;;;;;;;;;;;;-142.75;100.00;75601.91;5092695;28;19916;-71
2022/07/25 03:43:21;;;;;;;;;;;;;;;-142.75;100.00;75605.84;5094235;28;19912;-71
2022/07/25 03:45:46;;;;;;;;;;;;;;;-142.75;100.00;75605.84;5093117;28;19919;-71
2022/07/25 03:48:11;;;;;;;;;;;;;;;-142.75;100.00;75609.78;5093903;28;20335;-71
2022/07/25 03:50:36;;;;;;;;;;;;;;;-142.75;100.00;75611.75;5092963;28;19951;-71
2022/07/25 03:53:02;;;;;;;;;;;;;;;-142.75;100.00;75609.78;5092705;28;20011;-72
2022/07/25 03:55:27;;;;;;;;;;;;;;;-142.75;100.00;75609.78;5094244;28;19982;-71
2022/07/25 03:57:52;;;;;;;;;;;;;;;-142.75;100.00;75617.66;5092638;28;19912;-70
2022/07/25 04:00:18;;;;;;;;;;;;;;;-142.75;100.00;75613.72;5093899;28;19916;-72
2022/07/25 04:02:43;;;;;;;;;;;;;;;-142.75;100.00;75617.66;5092663;28;20003;-71
2022/07/25 04:05:09;;;;;;;;;;;;;;;-142.75;100.00;75611.75;5093798;28;19916;-71
2022/07/25 04:07:35;;;;;;;;;;;;;;;-142.75;100.00;75605.84;5093802;28;20003;-71
2022/07/25 04:10:00;;;;;;;;;;;;;;;-142.75;100.00;75590.13;5093391;28;19919;-72
2022/07/25 04:12:25;;;;;;;;;;;;;;;-142.75;100.00;75594.06;5093709;28;19912;-71
2022/07/25 04:14:50;;;;;;;;;;;;;;;-142.75;100.00;75590.13;5092470;28;20027;-72
2022/07/25 04:17:15;;;;;;;;;;;;;;;-142.75;100.00;75578.31;5093576;28;19919;-72
2022/07/25 04:19:41;;;;;;;;;;;;;;;-142.75;100.00;75586.19;5093187;28;19916;-71
2022/07/25 04:22:06;;;;;;;;;;;;;;;-142.75;100.00;75582.25;5091029;28;19982;-71
2022/07/25 04:24:31;;;;;;;;;;;;;;;-142.75;100.00;75570.44;5093556;28;20340;-71
2022/07/25 04:26:56;;;;;;;;;;;;;;;-142.75;100.00;75562.56;5093455;28;19913;-72
2022/07/25 04:29:21;;;;;;;;;;;;;;;-142.75;100.00;75562.56;5093053;28;19957;-70
2022/07/25 04:31:47;;;;;;;;;;;;;;;-142.75;100.00;75558.63;5093330;28;19916;-71
2022/07/25 04:34:12;;;;;;;;;;;;;;;-142.75;100.00;75558.63;5093308;28;19914;-71
2022/07/25 04:36:37;;;;;;;;;;;;;;;-142.75;100.00;75560.59;5092011;28;20436;-71
2022/07/25 04:39:02;;;;;;;;;;;;;;;-142.75;100.00;75564.53;5091809;28;19916;-71
2022/07/25 04:41:28;;;;;;;;;;;;;;;-142.75;100.00;75566.50;5091564;28;19951;-71
2022/07/25 04:43:53;;;;;;;;;;;;;;;-142.75;100.00;75562.56;5091980;28;19957;-72
2022/07/25 04:46:21;;;;;;;;;;;;;;;-142.75;100.00;75558.63;5093113;28;20011;-71
2022/07/25 04:48:47;;;;;;;;;;;;;;;-142.75;100.00;75564.53;5092900;28;19912;-71
2022/07/25 04:51:12;;;;;;;;;;;;;;;-142.75;100.00;75556.66;5091626;28;19912;-71
2022/07/25 04:53:37;;;;;;;;;;;;;;;-142.75;100.00;75554.69;5093033;28;19947;-71
2022/07/25 04:56:03;;;;;;;;;;;;;;;-142.75;100.00;75554.69;5092893;28;19912;-71
2022/07/25 04:58:30;;;;;;;;;;;;;;;-142.75;100.00;75546.81;5092872;28;19915;-71
2022/07/25 05:00:55;;;;;;;;;;;;;;;-142.75;100.00;75550.75;5092753;28;19939;-71
2022/07/25 05:03:20;;;;;;;;;;;;;;;-142.75;100.00;75538.94;5093227;28;19912;-70
2022/07/25 05:05:46;;;;;;;;;;;;;;;-142.75;100.00;75538.94;5092973;28;20001;-71
2022/07/25 05:08:11;;;;;;;;;;;;;;;-142.75;100.00;75535.00;5091626;28;19943;-72
2022/07/25 05:10:36;;;;;;;;;;;;;;;-142.75;100.00;75527.13;5092795;28;20605;-72
2022/07/25 05:13:01;;;;;;;;;;;;;;;-142.75;100.00;75521.22;5093457;28;19912;-72
2022/07/25 05:15:27;;;;;;;;;;;;;;;-142.75;100.00;75521.22;5093092;28;19913;-72
2022/07/25 05:17:52;;;;;;;;;;;;;;;-142.75;100.00;75515.31;5092602;28;19924;-70
2022/07/25 05:20:17;;;;;;;;;;;;;;;-142.75;100.00;75519.25;5092831;28;19916;-72
2022/07/25 05:22:42;;;;;;;;;;;;;;;-142.75;100.00;75515.31;5091735;28;19920;-72
2022/07/25 05:25:09;;;;;;;;;;;;;;;-142.75;100.00;75517.28;5091452;28;19938;-72
2022/07/25 05:27:34;;;;;;;;;;;;;;;-142.75;100.00;75519.25;5091565;28;20388;-72
2022/07/25 05:29:59;;;;;;;;;;;;;;;-142.75;100.00;75523.19;5092287;28;19959;-72
2022/07/25 05:32:25;;;;;;;;;;;;;;;-142.75;100.00;75529.09;5091008;28;20015;-72
2022/07/25 05:34:51;;;;;;;;;;;;;;;-142.75;100.00;75527.13;5092540;28;19927;-72
2022/07/25 05:37:16;;;;;;;;;;;;;;;-142.75;100.00;75527.13;5092574;28;19912;-72
2022/07/25 05:39:41;;;;;;;;;;;;;;;-142.75;100.00;75517.28;5092187;28;19917;-70
2022/07/25 05:42:06;;;;;;;;;;;;;;;-142.75;100.00;75511.41;5089511;28;19916;-72
2022/07/25 05:44:31;;;;;;;;;;;;;;;-142.75;100.00;75499.59;5091190;28;19912;-72
2022/07/25 05:46:57;;;;;;;;;;;;;;;-142.75;100.00;75493.69;5092380;28;20003;-72
2022/07/25 05:49:22;;;;;;;;;;;;;;;-142.75;100.00;75483.84;5091972;28;19935;-72
2022/07/25 05:51:47;;;;;;;;;;;;;;;-142.75;100.00;75485.81;5092063;28;19912;-72
2022/07/25 05:54:12;;;;;;;;;;;;;;;-142.75;100.00;75474.00;5090969;28;20373;-72
2022/07/25 05:56:37;;;;;;;;;;;;;;;-142.75;100.00;75468.09;5092207;28;19916;-72
2022/07/25 05:59:03;;;;;;;;;;;;;;;-142.75;100.00;75470.06;5091893;28;19969;-72
2022/07/25 06:01:28;;;;;;;;;;;;;;;-142.75;100.00;75468.09;5092161;28;19919;-72
2022/07/25 06:03:53;;;;;;;;;;;;;;;-142.75;100.00;75468.09;5092201;28;19912;-72
2022/07/25 06:06:18;;;;;;;;;;;;;;;-142.75;100.00;75464.16;5091989;28;20140;-72
2022/07/25 06:08:44;;;;;;;;;;;;;;;-142.75;100.00;75460.22;5091954;28;19916;-72
2022/07/25 06:11:09;;;;;;;;;;;;;;;-142.75;100.00;75458.25;5089777;28;19920;-72
2022/07/25 06:13:34;;;;;;;;;;;;;;;-142.75;100.00;75472.03;5092058;28;19912;-72
2022/07/25 06:15:59;;;;;;;;;;;;;;;-142.75;100.00;75460.22;5091988;28;20042;-72
2022/07/25 06:18:25;;;;;;;;;;;;;;;-142.75;100.00;75444.47;5091182;28;19931;-72
2022/07/25 06:20:51;;;;;;;;;;;;;;;-142.75;100.00;75450.38;5089650;28;19931;-71
2022/07/25 06:23:16;;;;;;;;;;;;;;;-142.75;100.00;75464.16;5090148;28;19999;-71
2022/07/25 06:25:42;;;;;;;;;;;;;;;-142.75;100.00;75470.06;5090294;28;19916;-72
2022/07/25 06:28:07;;;;;;;;;;;;;;;-142.75;100.00;75475.97;5090912;28;19912;-71
2022/07/25 06:30:33;;;;;;;;;;;;;;;-142.75;100.00;75479.91;5091746;28;19948;-72
2022/07/25 06:32:58;;;;;;;;;;;;;;;-142.75;100.00;75485.81;5091942;28;19912;-72
2022/07/25 06:35:23;;;;;;;;;;;;;;;-142.75;100.00;75485.81;5091816;28;19919;-72
2022/07/25 06:37:48;;;;;;;;;;;;;;;-142.75;100.00;75485.81;5090900;28;19912;-72
2022/07/25 06:40:14;;;;;;;;;;;;;;;-142.75;100.00;75487.78;5090514;28;19916;-72
2022/07/25 06:42:42;;;;;;;;;;;;;;;-142.75;100.00;75489.75;5091975;28;19916;-72
2022/07/25 06:45:09;;;;;;;;;;;;;;;-142.75;100.00;75495.66;5091416;28;19922;-70
2022/07/25 06:47:34;;;;;;;;;;;;;;;-142.75;100.00;75495.66;5095507;28;19927;-72
2022/07/25 06:50:00;;;;;;;;;;;;;;;-142.75;100.00;75505.50;5095155;28;20283;-73
2022/07/25 06:52:25;;;;;;;;;;;;;;;-142.75;100.00;75507.47;5095340;28;20313;-73
2022/07/25 06:54:50;;;;;;;;;;;;;;;-142.75;100.00;75501.56;5093869;28;19920;-71
2022/07/25 06:57:15;;;;;;;;;;;;;;;-142.75;100.00;75503.53;5094413;28;19912;-70
2022/07/25 06:59:41;;;;;;;;;;;;;;;-142.75;100.00;75497.63;5092514;28;19920;-70
2022/07/25 07:02:06;;;;;;;;;;;;;;;-142.75;100.00;75487.78;5092882;28;20410;-70
2022/07/25 07:04:31;;;;;;;;;;;;;;;-142.75;100.00;75472.03;5094373;28;20387;-69
2022/07/25 07:06:56;;;;;;;;;;;;;;;-142.75;100.00;75462.19;5091954;28;20003;-70
2022/07/25 07:09:22;;;;;;;;;;;;;;;-142.75;100.00;75452.34;5078773;28;20271;-70
2022/07/25 07:11:47;;;;;;;;;;;;;;;-142.75;100.00;75440.53;5073654;28;19920;-70
2022/07/25 07:14:12;;;;;;;;;;;;;;;-142.75;100.00;75434.66;5073617;28;19922;-70
2022/07/25 07:16:40;;;;;;;;;;;;;;;-142.75;100.00;75428.75;5073503;28;20340;-70
2022/07/25 07:19:05;;;;;;;;;;;;;;;-142.75;100.00;75436.59;5073206;28;19962;-70
2022/07/25 07:21:30;;;;;;;;;;;;;;;-142.75;100.00;75450.38;5072165;28;19999;-72
2022/07/25 07:23:55;;;;;;;;;;;;;;;-142.75;100.00;75456.28;5073441;28;19912;-72
2022/07/25 07:26:21;;;;;;;;;;;;;;;-142.75;100.00;75462.19;5083994;28;19919;-70
2022/07/25 07:28:46;;;;;;;;;;;;;;;-142.75;100.00;75474.00;5092959;28;20385;-72
2022/07/25 07:31:11;;;;;;;;;;;;;;;-142.75;100.00;75468.09;5092965;28;19916;-72
2022/07/25 07:33:36;;;;;;;;;;;;;;;-142.75;100.00;75464.16;5093008;28;19912;-71
2022/07/25 07:36:02;;;;;;;;;;;;;;;-142.75;100.00;75448.41;5092792;28;19938;-72
2022/07/25 07:38:27;;;;;;;;;;;;;;;-142.75;100.00;75448.41;5094062;28;19981;-72
2022/07/25 07:40:52;;;;;;;;;;;;;;;-142.75;100.00;75450.38;5094051;28;19916;-72
2022/07/25 07:43:18;;;;;;;;;;;;;;;-142.75;100.00;75446.44;5094352;28;20332;-71
2022/07/25 07:45:43;;;;;;;;;;;;;;;-142.75;100.00;75448.41;5094385;28;20326;-72
2022/07/25 07:48:09;;;;;;;;;;;;;;;-142.75;100.00;75444.47;5093734;28;19912;-71
2022/07/25 07:50:34;;;;;;;;;;;;;;;-142.75;100.00;75444.47;5092786;28;19916;-72
2022/07/25 07:52:59;;;;;;;;;;;;;;;-142.75;100.00;75434.66;5094122;28;19973;-72
2022/07/25 07:55:42;;;;;;;;;;;;;;;-142.75;100.00;75426.78;5093851;28;19913;-72
2022/07/25 07:58:08;;;;;;;;;;;;;;;-142.75;100.00;75413.00;5093784;28;19916;-72
2022/07/25 08:00:35;;;;;;;;;;;;;;;-142.75;100.00;75407.09;5092593;28;19916;-71
2022/07/25 08:03:01;;;;;;;;;;;;;;;-142.75;100.00;75416.94;5093750;28;20285;-70
2022/07/25 08:05:28;;;;;;;;;;;;;;;-142.75;100.00;75422.84;5093683;28;19912;-71
2022/07/25 08:07:54;;;;;;;;;;;;;;;-142.75;100.00;75389.38;5093484;28;20544;-70
2022/07/25 08:10:20;;;;;;;;;;;;;;;-142.75;100.00;75381.50;5093910;28;19956;-72
2022/07/25 08:12:46;;;;;;;;;;;;;;;-142.75;100.00;75377.56;5092606;28;19986;-72
2022/07/25 08:15:11;;;;;;;;;;;;;;;-142.75;100.00;75357.91;5093626;28;19916;-71
2022/07/25 08:17:36;;;;;;;;;;;;;;;-142.75;100.00;75353.97;5093519;28;19919;-70
2022/07/25 08:20:07;;;;;;;;;;;;;;;-142.75;100.00;75322.47;5093198;28;20281;-71
2022/07/25 08:22:39;;;;;;;;;;;;;;;-142.75;100.00;75289.03;5092510;28;20006;-71
2022/07/25 08:25:05;;;;;;;;;;;;;;;-142.75;100.00;75298.84;5093605;28;19999;-70
2022/07/25 08:27:30;;;;;;;;;;;;;;;-142.75;100.00;75300.81;5093615;28;19955;-71
2022/07/25 08:29:55;;;;;;;;;;;;;;;-142.75;100.00;75314.59;5091435;28;20415;-69
2022/07/25 08:32:23;;;;;;;;;;;;;;;-142.75;100.00;75332.31;5093694;28;19919;-70
2022/07/25 08:34:48;;;;;;;;;;;;;;;-142.75;100.00;75340.19;5074957;22;19925;-67
2022/07/25 08:37:14;;;;;;;;;;;;;;;-142.75;100.00;75318.53;5052094;28;20267;-67
2022/07/25 08:39:40;;;;;;;;;;;;;;;-142.75;100.00;75287.06;5051261;28;19943;-68
2022/07/25 08:42:06;;;;;;;;;;;;;;;-142.75;100.00;75255.56;5052821;28;19924;-68
2022/07/25 08:44:34;;;;;;;;;;;;;;;-142.75;100.00;75229.97;5052742;28;19923;-68
2022/07/25 08:46:59;;;;;;;;;;;;;;;-142.75;100.00;75235.88;5052823;28;20369;-68
2022/07/25 08:49:26;;;;;;;;;;;;;;;-142.75;100.00;75251.63;5052320;28;19913;-68
2022/07/25 08:51:52;;;;;;;;;;;;;;;-142.75;100.00;75218.19;5052698;28;20377;-68
2022/07/25 08:54:17;;;;;;;;;;;;;;;-142.75;100.00;75165.03;5050885;28;19970;-68
2022/07/25 08:56:43;;;;;;;;;;;;;;;-142.75;100.00;75113.88;5052608;28;19920;-68
2022/07/25 08:59:09;;;;;;;;;;;;;;;-142.75;100.00;75046.97;5052240;28;20027;-68
2022/07/25 09:01:34;;;;;;;;;;;;;;;-142.75;100.00;74997.78;5051343;28;19935;-68
2022/07/25 09:04:00;;;;;;;;;;;;;;;-142.75;100.00;74966.31;5052323;28;20367;-68
2022/07/25 09:06:25;;;;;;;;;;;;;;;-142.75;100.00;74960.41;5052458;28;19912;-68
2022/07/25 09:08:51;;;;;;;;;;;;;;;-142.75;100.00;74948.59;5051487;28;19969;-68
2022/07/25 09:11:24;;;;;;;;;;;;;;;-142.75;100.00;74970.25;5052389;28;20007;-68
2022/07/25 09:13:56;;;;;;;;;;;;;;;-142.75;100.00;75007.63;5052364;28;19955;-68
2022/07/25 09:16:27;;;;;;;;;;;;;;;-142.75;100.00;75046.97;5052266;28;19920;-68
2022/07/25 09:18:52;;;;;;;;;;;;;;;-142.75;100.00;75070.59;5051872;28;19919;-68
2022/07/25 09:21:18;;;;;;;;;;;;;;;-142.75;100.00;75094.22;5052307;28;19913;-68
2022/07/25 09:23:43;;;;;;;;;;;;;;;-142.75;100.00;75109.94;5052196;28;19970;-68
2022/07/25 09:26:10;;;;;;;;;;;;;;;-142.75;100.00;75123.72;5052203;28;19919;-68
2022/07/25 09:28:39;;;;;;;;;;;;;;;-142.75;100.00;75153.25;5051887;28;19920;-68
2022/07/25 09:31:04;;;;;;;;;;;;;;;-142.75;100.00;75165.03;5052074;28;19920;-68
2022/07/25 09:33:30;;;;;;;;;;;;;;;-142.75;100.00;75208.34;5051875;28;19917;-68
2022/07/25 09:35:56;;;;;;;;;;;;;;;-142.75;100.00;75224.09;5052080;28;19920;-68
2022/07/25 09:38:22;;;;;;;;;;;;;;;-142.75;100.00;75249.66;5051816;28;19917;-68
2022/07/25 09:40:57;;;;;;;;;;;;;;;-142.75;100.00;75279.19;5052057;28;19917;-68
2022/07/25 09:43:34;;;;;;;;;;;;;;;-142.75;100.00;75291.00;5051898;28;19920;-68
2022/07/25 09:46:00;;;;;;;;;;;;;;;-142.75;100.00;75279.19;5052028;28;20286;-68
2022/07/25 09:48:26;;;;;;;;;;;;;;;-142.75;100.00;75220.16;5051650;28;19990;-68
2022/07/25 09:50:51;;;;;;;;;;;;;;;-142.75;100.00;75170.94;5051895;28;20375;-68
2022/07/25 09:53:16;;;;;;;;;;;;;;;-142.75;100.00;75070.59;5050553;28;19913;-68
2022/07/25 09:55:41;;;;;;;;;;;;;;;-142.75;100.00;75041.09;5051891;28;19923;-67
2022/07/25 09:58:07;;;;;;;;;;;;;;;-142.75;100.00;75025.34;5051564;28;19912;-67
2022/07/25 10:00:32;;;;;;;;;;;;;;;-142.75;100.00;75035.19;5052206;28;20397;-68
2022/07/25 10:02:57;;;;;;;;;;;;;;;-142.75;100.00;75019.44;5051749;28;20374;-68
2022/07/25 10:05:23;;;;;;;;;;;;;;;-142.75;100.00;75058.78;5051847;28;20387;-68
2022/07/25 10:07:49;;;;;;;;;;;;;;;-142.75;100.00;75086.34;5051595;28;19912;-67
2022/07/25 10:10:20;;;;;;;;;;;;;;;-142.75;100.00;75082.41;5051641;28;20004;-68
2022/07/25 10:12:56;;;;;;;;;;;;;;;-142.75;100.00;75149.31;5051663;28;20377;-68
2022/07/25 10:15:22;;;;;;;;;;;;;;;-142.75;100.00;75194.56;5051775;28;19920;-68
2022/07/25 10:17:49;;;;;;;;;;;;;;;-142.75;100.00;75218.19;5051519;28;19913;-67
2022/07/25 10:20:14;;;;;;;;;;;;;;;-142.75;100.00;75249.66;5054419;28;19924;-68
2022/07/25 10:22:40;;;;;;;;;;;;;;;-142.75;100.00;75269.34;5055381;28;20301;-69
2022/07/25 10:25:06;;;;;;;;;;;;;;;-142.75;100.00;75247.69;5055347;28;19912;-68
2022/07/25 10:27:40;;;;;;;;;;;;;;;-142.75;100.00;75231.94;5055586;28;19913;-68
2022/07/25 10:30:09;;;;;;;;;;;;;;;-142.75;100.00;75261.47;5053976;28;20445;-68
2022/07/25 10:32:34;;;;;;;;;;;;;;;-142.75;100.00;75289.03;5055074;28;19935;-68
2022/07/25 10:34:59;;;;;;;;;;;;;;;-142.75;100.00;75291.00;5055270;28;19995;-68
2022/07/25 10:37:26;;;;;;;;;;;;;;;-142.75;100.00;75322.47;5054038;28;19998;-68
2022/07/25 10:39:51;;;;;;;;;;;;;;;-142.75;100.00;75352.00;5054798;28;19924;-67
2022/07/25 10:42:20;;;;;;;;;;;;;;;-142.75;100.00;75363.78;5053834;28;19913;-68
2022/07/25 10:44:57;;;;;;;;;;;;;;;-142.75;100.00;75371.66;5053700;28;19913;-68
2022/07/25 10:47:25;;;;;;;;;;;;;;;-142.75;100.00;75379.53;5055052;28;19917;-68
2022/07/25 10:49:56;;;;;;;;;;;;;;;-142.75;100.00;75397.25;5054713;28;20353;-68
2022/07/25 10:52:26;;;;;;;;;;;;;;;-142.75;100.00;75401.19;5054869;28;20383;-68
2022/07/25 10:54:52;;;;;;;;;;;;;;;-142.75;100.00;75401.19;5051989;28;19919;-68
2022/07/25 10:57:18;;;;;;;;;;;;;;;-142.75;100.00;75375.59;5054732;28;19916;-67
2022/07/25 10:59:43;;;;;;;;;;;;;;;-142.75;100.00;75332.31;5054468;28;20039;-68
2022/07/25 11:02:15;;;;;;;;;;;;;;;-142.75;100.00;75314.59;5054736;28;19913;-68
2022/07/25 11:04:40;;;;;;;;;;;;;;;-142.75;100.00;75318.53;5053321;28;19999;-68
2022/07/25 11:07:13;;;;;;;;;;;;;;;-142.75;100.00;75353.97;5053346;28;20016;-68
2022/07/25 11:09:39;;;;;;;;;;;;;;;-142.75;100.00;75375.59;5054292;28;20409;-68
2022/07/25 11:12:04;;;;;;;;;;;;;;;-142.75;100.00;75391.34;5054592;28;19913;-67
2022/07/25 11:14:34;;;;;;;;;;;;;;;-142.75;100.00;75391.34;5054364;28;19945;-65
2022/07/25 11:17:17;;;;;;;;;;;;;;;-142.75;100.00;75377.56;5054458;28;19959;-67
2022/07/25 11:19:42;;;;;;;;;;;;;;;-142.75;100.00;75373.63;5054093;28;19971;-67
2022/07/25 11:22:08;;;;;;;;;;;;;;;-142.75;100.00;75371.66;5054224;28;19912;-68
2022/07/25 11:24:35;;;;;;;;;;;;;;;-142.75;100.00;75381.50;5054185;28;19927;-68
2022/07/25 11:27:00;;;;;;;;;;;;;;;-142.75;100.00;75352.00;5052940;28;20407;-68
2022/07/25 11:29:26;;;;;;;;;;;;;;;-142.75;100.00;75334.28;5052491;28;20007;-68
2022/07/25 11:32:11;;;;;;;;;;;;;;;-142.75;100.00;75342.16;5053370;28;20016;-67
2022/07/25 11:34:38;;;;;;;;;;;;;;;-142.75;100.00;75369.69;5052207;28;19924;-67
2022/07/25 11:37:05;;;;;;;;;;;;;;;-142.75;100.00;75352.00;5054128;28;19913;-67
2022/07/25 11:39:31;;;;;;;;;;;;;;;-142.75;95.37;75326.41;5052456;28;19978;-67
2022/07/25 11:41:57;;;;;;;;;;;;;;;-142.75;92.65;75312.63;5053959;28;19999;-67
2022/07/25 11:44:49;;;;;;;;;;;;;;;-142.75;92.41;75294.94;5053757;28;20003;-67
2022/07/25 11:47:22;;;;;;;;;;;;;;;-142.75;95.99;75265.41;5051646;28;19912;-67
2022/07/25 11:49:48;;;;;;;;;;;;;;;-142.75;94.30;75275.25;5053468;28;20355;-68
2022/07/25 11:52:21;;;;;;;;;;;;;;;-142.75;96.47;75251.63;5052418;28;20478;-67
2022/07/25 11:54:53;;;;;;;;;;;;;;;-142.75;93.24;75263.44;5052533;28;20282;-67
2022/07/25 11:57:19;;;;;;;;;;;;;;;-142.75;89.36;75239.81;5053673;28;19912;-68
2022/07/25 11:59:45;;;;;;;;;;;;;;;-142.75;87.86;75235.88;5053119;28;20371;-67
2022/07/25 12:02:19;;;;;;;;;;;;;;;-142.75;88.41;75212.28;5053546;28;20016;-67
2022/07/25 12:04:52;;;;;;;;;;;;;;;-142.75;89.53;75133.56;5053496;28;19964;-67
2022/07/25 12:07:17;;;;;;;;;;;;;;;-142.75;83.50;75125.69;5053485;28;19963;-68
2022/07/25 12:09:42;;;;;;;;;;;;;;;-142.75;81.92;75180.78;5053115;28;19959;-66
2022/07/25 12:12:08;;;;;;;;;;;;;;;-142.75;81.98;75216.22;5053446;28;19952;-67